Terminal Aerodrome Forecast
Issued by NWS

Home | Current Version | Previous Version | Text Only | Print | Product List | Glossary On
Versions: 1 2 3 4 5 6 7 8 9 10 11 12 13 14 15 16
260
FTUS43 KAPX 071120
TAFTVC
TAF
KTVC 071120Z 0712/0812 18006KT P6SM OVC080 WS020/21032KT
     FM071900 12007KT P6SM OVC015
     FM080300 20004KT 6SM BR OVC012
     FM080800 VRB02KT 3SM BR OVC009=

USA.gov is the U.S. government's official web portal to all federal, state and local government web resources and services.